createdAt,value
2019-01-31T00:00:41.991Z,34.45
2019-01-31T00:03:54.855Z,37.90
2019-01-31T00:07:04.510Z,35.33
2019-01-31T00:10:23.371Z,34.73
2019-01-31T00:13:22.386Z,35.28
2019-01-31T00:16:43.534Z,37.27
2019-01-31T00:19:42.587Z,39.67
2019-01-31T00:22:57.238Z,39.73
2019-01-31T00:26:25.896Z,38.08
2019-01-31T00:29:35.619Z,39.47
2019-01-31T00:32:45.373Z,36.63
2019-01-31T00:36:01.418Z,40.13
2019-01-31T00:39:21.843Z,35.33
2019-01-31T00:42:33.209Z,32.03
2019-01-31T00:45:38.354Z,30.43
2019-01-31T00:48:59.827Z,27.00
2019-01-31T00:52:19.525Z,28.12
2019-01-31T00:55:16.541Z,27.13
2019-01-31T00:58:11.756Z,24.70
2019-01-31T01:01:22.937Z,27.00
2019-01-31T01:04:58.880Z,35.57
2019-01-31T01:08:15.884Z,29.03
2019-01-31T01:12:04.465Z,29.50
2019-01-31T01:15:31.124Z,27.57
2019-01-31T01:18:40.676Z,25.97
2019-01-31T01:21:55.579Z,29.87
2019-01-31T01:25:36.533Z,31.65
2019-01-31T01:28:48.674Z,23.15
2019-01-31T01:32:01.044Z,23.43
2019-01-31T01:35:01.334Z,20.43
2019-01-31T01:38:27.237Z,17.13
2019-01-31T01:41:37.356Z,21.30
2019-01-31T01:45:04.294Z,18.47
2019-01-31T01:47:58.483Z,19.67
2019-01-31T01:51:28.096Z,19.93
2019-01-31T01:54:27.552Z,26.43
2019-01-31T01:58:06.283Z,24.80
2019-01-31T02:01:46.438Z,24.42
2019-01-31T02:05:08.468Z,23.93
2019-01-31T02:08:40.957Z,19.73
2019-01-31T02:11:39.127Z,20.43
2019-01-31T02:14:54.308Z,20.20
2019-01-31T02:18:12.845Z,20.48
2019-01-31T02:21:37.220Z,20.70
2019-01-31T02:24:40.288Z,19.77
2019-01-31T02:28:06.231Z,16.83
2019-01-31T02:31:43.015Z,25.42
2019-01-31T02:35:18.931Z,17.90
2019-01-31T02:38:56.416Z,18.43
2019-01-31T02:42:12.683Z,16.57
2019-01-31T02:45:23.844Z,15.43
2019-01-31T02:48:36.812Z,15.07
2019-01-31T02:52:06.025Z,13.53
2019-01-31T02:54:56.424Z,11.57
2019-01-31T02:58:23.010Z,14.03
2019-01-31T03:01:36.735Z,13.35
2019-01-31T03:04:40.016Z,13.67
2019-01-31T03:07:57.926Z,14.70
2019-01-31T03:11:06.236Z,15.33
2019-01-31T03:14:09.456Z,14.77
2019-01-31T03:17:34.953Z,14.98
2019-01-31T03:20:57.838Z,13.98
2019-01-31T03:24:28.698Z,14.57
2019-01-31T03:28:10.090Z,13.35
2019-01-31T03:31:32.690Z,13.33
2019-01-31T03:34:38.773Z,9.17
2019-01-31T03:37:35.556Z,11.10
2019-01-31T03:40:44.481Z,10.97
2019-01-31T03:43:45.879Z,15.45
2019-01-31T03:46:48.393Z,12.23
2019-01-31T03:49:57.131Z,14.30
2019-01-31T03:53:23.979Z,12.52
2019-01-31T03:56:39.534Z,16.37
2019-01-31T03:59:27.696Z,12.00
2019-01-31T04:02:51.487Z,14.27
2019-01-31T04:05:52.683Z,18.35
2019-01-31T04:08:25.467Z,17.00
2019-01-31T04:10:59.807Z,17.63
2019-01-31T04:13:34.103Z,14.60
2019-01-31T04:16:08.488Z,15.07
2019-01-31T04:18:41.244Z,15.17
2019-01-31T04:21:14.863Z,19.30
2019-01-31T04:23:47.834Z,20.20
2019-01-31T04:26:20.623Z,19.47
2019-01-31T04:28:55.433Z,19.85
2019-01-31T04:31:28.195Z,17.30
2019-01-31T04:34:00.914Z,18.70
2019-01-31T04:36:36.159Z,17.10
2019-01-31T04:39:10.046Z,15.93
2019-01-31T04:41:42.728Z,19.60
2019-01-31T04:44:15.755Z,12.77
2019-01-31T04:46:48.674Z,19.17
2019-01-31T04:49:21.308Z,14.53
2019-01-31T04:51:54.651Z,14.20
2019-01-31T04:54:27.468Z,14.10
2019-01-31T04:57:00.285Z,15.40
2019-01-31T04:59:33.406Z,15.33
2019-01-31T05:02:06.317Z,18.00
2019-01-31T05:04:38.976Z,12.80
2019-01-31T05:07:12.404Z,20.12
2019-01-31T05:09:46.421Z,22.83
2019-01-31T05:12:19.424Z,19.20
2019-01-31T05:14:52.444Z,12.70
2019-01-31T05:17:25.194Z,16.77
2019-01-31T05:19:58.739Z,12.40
2019-01-31T05:22:32.248Z,12.47
2019-01-31T05:25:06.424Z,14.70
2019-01-31T05:27:39.435Z,10.47
2019-01-31T05:30:15.774Z,9.13
2019-01-31T05:32:48.657Z,14.00
2019-01-31T05:35:22.164Z,11.33
2019-01-31T05:37:55.401Z,10.27
2019-01-31T05:40:28.196Z,9.83
2019-01-31T05:43:01.009Z,16.67
2019-01-31T05:45:34.173Z,11.70
2019-01-31T05:48:06.971Z,13.07
2019-01-31T05:50:39.741Z,11.70
2019-01-31T05:53:16.175Z,11.67
2019-01-31T05:55:48.929Z,13.87
2019-01-31T05:58:21.797Z,13.60
2019-01-31T06:00:54.948Z,8.47
2019-01-31T06:03:28.960Z,11.63
2019-01-31T06:06:01.823Z,10.23
2019-01-31T06:08:35.931Z,11.37
2019-01-31T06:11:08.940Z,13.80
2019-01-31T06:13:44.139Z,12.80
2019-01-31T06:16:18.257Z,10.55
2019-01-31T06:18:52.064Z,14.27
2019-01-31T06:21:24.800Z,12.13
2019-01-31T06:23:57.953Z,12.70
2019-01-31T06:26:31.396Z,9.23
2019-01-31T06:29:05.275Z,9.53
2019-01-31T06:31:37.998Z,11.52
2019-01-31T06:34:10.689Z,9.27
2019-01-31T06:36:44.302Z,9.13
2019-01-31T06:39:20.090Z,11.97
2019-01-31T06:41:53.011Z,16.00
2019-01-31T06:44:26.897Z,13.73
2019-01-31T06:47:00.879Z,10.83
2019-01-31T06:49:33.541Z,11.57
2019-01-31T06:52:08.771Z,9.83
2019-01-31T06:54:42.781Z,10.07
2019-01-31T06:57:16.275Z,10.13
2019-01-31T06:59:51.770Z,9.40
2019-01-31T07:02:25.824Z,12.40
2019-01-31T07:04:59.293Z,13.82
2019-01-31T07:07:32.664Z,14.47
2019-01-31T07:10:15.916Z,14.20
2019-01-31T07:12:48.891Z,12.73
2019-01-31T07:15:23.839Z,13.00
2019-01-31T07:17:57.169Z,13.13
2019-01-31T07:20:30.192Z,10.47
2019-01-31T07:23:05.090Z,11.57
2019-01-31T07:25:37.979Z,13.23
2019-01-31T07:28:18.220Z,11.60
2019-01-31T07:30:52.025Z,12.33
2019-01-31T07:33:25.853Z,11.13
2019-01-31T07:35:58.746Z,12.50
2019-01-31T07:38:31.883Z,13.13
2019-01-31T07:41:04.719Z,13.33
2019-01-31T07:43:38.600Z,13.07
2019-01-31T07:46:12.840Z,12.27
2019-01-31T07:48:46.402Z,13.27
2019-01-31T07:51:19.174Z,22.73
2019-01-31T07:53:52.281Z,21.10
2019-01-31T07:56:25.176Z,22.53
2019-01-31T07:58:57.919Z,21.77
2019-01-31T08:01:33.644Z,22.80
2019-01-31T08:04:06.847Z,32.97
2019-01-31T08:06:39.586Z,31.50
2019-01-31T08:09:12.984Z,25.60
2019-01-31T08:11:52.297Z,23.37
2019-01-31T08:14:26.997Z,21.00
2019-01-31T08:17:02.176Z,19.23
2019-01-31T08:19:35.620Z,16.10
2019-01-31T08:22:09.151Z,11.73
2019-01-31T08:24:42.376Z,14.43
2019-01-31T08:27:16.208Z,16.17
2019-01-31T08:29:50.299Z,16.70
2019-01-31T08:32:23.828Z,17.43
2019-01-31T08:34:57.461Z,21.97
2019-01-31T08:37:30.491Z,21.63
2019-01-31T08:40:03.710Z,16.45
2019-01-31T08:42:40.334Z,14.60
2019-01-31T08:45:20.615Z,16.17
2019-01-31T08:47:54.347Z,14.30
2019-01-31T08:50:31.201Z,15.40
2019-01-31T08:53:04.981Z,14.80
2019-01-31T08:55:38.938Z,13.17
2019-01-31T08:58:13.673Z,12.52
2019-01-31T09:00:46.597Z,12.33
2019-01-31T09:03:22.466Z,13.67
2019-01-31T09:05:55.881Z,9.90
2019-01-31T09:08:51.147Z,12.85
2019-01-31T09:11:23.983Z,14.37
2019-01-31T09:13:57.325Z,10.50
2019-01-31T09:16:30.964Z,7.47
2019-01-31T09:19:04.846Z,11.37
2019-01-31T09:22:07.787Z,8.33
2019-01-31T09:25:44.375Z,9.97
2019-01-31T09:29:13.162Z,7.30
2019-01-31T09:32:45.320Z,10.83
2019-01-31T09:36:02.456Z,9.20
2019-01-31T09:39:18.605Z,7.00
2019-01-31T09:42:41.836Z,8.50
2019-01-31T09:45:46.457Z,9.57
2019-01-31T09:48:54.772Z,6.87
2019-01-31T09:52:32.240Z,7.53
2019-01-31T09:56:28.351Z,7.55
2019-01-31T09:59:55.006Z,10.32
2019-01-31T10:03:21.209Z,7.57
2019-01-31T10:06:31.670Z,8.03
2019-01-31T10:09:59.204Z,4.73
2019-01-31T10:13:40.047Z,9.15
2019-01-31T10:16:51.351Z,7.68
2019-01-31T10:20:01.556Z,4.50
2019-01-31T10:23:33.177Z,6.07
2019-01-31T10:26:44.383Z,4.60
2019-01-31T10:29:48.531Z,7.10
2019-01-31T10:33:08.321Z,5.60
2019-01-31T10:36:58.991Z,5.97
2019-01-31T10:40:23.792Z,6.30
2019-01-31T10:43:33.711Z,6.83
2019-01-31T10:46:40.691Z,8.00
2019-01-31T10:49:45.566Z,7.83
2019-01-31T10:53:06.916Z,7.15
2019-01-31T10:56:20.038Z,7.00
2019-01-31T10:59:50.550Z,8.53
2019-01-31T11:03:15.465Z,6.45
2019-01-31T11:06:45.482Z,6.72
2019-01-31T11:10:00.968Z,7.77
2019-01-31T11:13:32.955Z,7.82
2019-01-31T11:17:12.654Z,6.35
2019-01-31T11:20:49.252Z,6.75
2019-01-31T11:24:19.884Z,8.77
2019-01-31T11:27:46.915Z,8.33
2019-01-31T11:30:59.919Z,8.77
2019-01-31T11:34:32.799Z,8.73
2019-01-31T11:38:15.245Z,10.17
2019-01-31T11:41:45.172Z,10.27
2019-01-31T11:45:22.625Z,10.93
2019-01-31T11:49:06.660Z,10.90
2019-01-31T11:52:35.536Z,13.60
2019-01-31T11:55:38.846Z,14.23
2019-01-31T11:59:06.582Z,10.07
2019-01-31T12:01:42.922Z,10.43
2019-01-31T12:04:20.384Z,10.57
2019-01-31T12:06:58.088Z,9.33
2019-01-31T12:09:32.156Z,10.43
2019-01-31T12:12:09.300Z,11.20
2019-01-31T12:14:42.005Z,12.37
2019-01-31T12:17:14.845Z,11.83
2019-01-31T12:19:47.625Z,9.63
2019-01-31T12:22:20.435Z,12.80
2019-01-31T12:24:55.028Z,12.33
2019-01-31T12:27:27.956Z,13.03
2019-01-31T12:30:00.775Z,11.67
2019-01-31T12:32:37.741Z,14.03
2019-01-31T12:35:12.816Z,10.30
2019-01-31T12:37:49.187Z,11.63
2019-01-31T12:40:22.282Z,13.32
2019-01-31T12:42:56.375Z,10.00
2019-01-31T12:45:29.483Z,10.05
2019-01-31T12:48:06.503Z,12.47
2019-01-31T12:50:43.257Z,14.87
2019-01-31T12:53:24.920Z,16.55
2019-01-31T12:55:57.642Z,14.93
2019-01-31T12:58:33.840Z,16.20
2019-01-31T13:01:10.992Z,14.93
2019-01-31T13:03:45.380Z,14.80
2019-01-31T13:06:18.300Z,12.23
2019-01-31T13:08:51.257Z,14.17
2019-01-31T13:11:24.610Z,14.37
2019-01-31T13:14:01.433Z,14.27
2019-01-31T13:16:34.428Z,14.43
2019-01-31T13:19:11.690Z,14.53
2019-01-31T13:21:48.534Z,14.10
2019-01-31T13:24:21.483Z,15.33
2019-01-31T13:26:56.055Z,13.90
2019-01-31T13:29:30.534Z,15.27
2019-01-31T13:32:05.172Z,15.97
2019-01-31T13:34:41.202Z,20.53
2019-01-31T13:37:13.936Z,15.45
2019-01-31T13:39:47.759Z,17.20
2019-01-31T13:42:21.548Z,17.13
2019-01-31T13:44:57.103Z,20.97
2019-01-31T13:47:30.048Z,13.73
2019-01-31T13:50:05.108Z,14.00
2019-01-31T13:52:40.924Z,19.47
2019-01-31T13:55:23.205Z,15.15
2019-01-31T13:58:01.867Z,15.77
2019-01-31T14:00:40.170Z,18.57
2019-01-31T14:03:13.013Z,17.60
2019-01-31T14:05:48.618Z,20.93
2019-01-31T14:08:22.784Z,23.00
2019-01-31T14:10:59.449Z,19.60
2019-01-31T14:13:35.343Z,20.60
2019-01-31T14:16:22.572Z,17.57
2019-01-31T14:19:11.410Z,20.10
2019-01-31T14:21:48.840Z,21.07
2019-01-31T14:24:23.693Z,21.80
2019-01-31T14:26:58.031Z,19.90
2019-01-31T14:29:33.347Z,17.67
2019-01-31T14:32:15.346Z,20.17
2019-01-31T14:34:49.204Z,18.70
2019-01-31T14:37:24.410Z,19.80
2019-01-31T14:40:00.612Z,18.97
2019-01-31T14:42:34.289Z,19.48
2019-01-31T14:45:08.343Z,22.33
2019-01-31T14:47:45.525Z,20.43
2019-01-31T14:50:27.501Z,20.67
2019-01-31T14:53:02.713Z,20.75
2019-01-31T14:55:36.402Z,23.83
2019-01-31T14:58:12.049Z,22.30
2019-01-31T15:00:47.931Z,22.90
2019-01-31T15:03:25.440Z,22.07
2019-01-31T15:05:59.367Z,20.27
2019-01-31T15:08:33.362Z,20.87
2019-01-31T15:11:06.342Z,22.53
2019-01-31T15:13:40.027Z,21.43
2019-01-31T15:16:13.585Z,24.00
2019-01-31T15:18:50.233Z,21.12
2019-01-31T15:21:25.312Z,22.27
2019-01-31T15:23:59.774Z,21.20
2019-01-31T15:26:34.523Z,21.55
2019-01-31T15:29:07.688Z,23.00
2019-01-31T15:31:42.785Z,30.27
2019-01-31T15:34:16.297Z,28.07
2019-01-31T15:36:50.399Z,22.07
2019-01-31T15:39:24.228Z,23.97
2019-01-31T15:41:59.326Z,25.27
2019-01-31T15:44:42.784Z,20.80
2019-01-31T15:47:17.489Z,27.47
2019-01-31T15:49:53.709Z,23.17
2019-01-31T15:52:27.184Z,23.07
2019-01-31T15:55:02.612Z,24.23
2019-01-31T15:57:39.519Z,26.17
2019-01-31T16:00:29.203Z,22.07
2019-01-31T16:03:05.090Z,23.43
2019-01-31T16:05:41.206Z,23.47
2019-01-31T16:08:14.312Z,22.63
2019-01-31T16:10:48.706Z,22.63
2019-01-31T16:13:24.358Z,28.23
2019-01-31T16:15:59.712Z,27.97
2019-01-31T16:18:32.500Z,32.30
2019-01-31T16:21:08.255Z,33.63
2019-01-31T16:23:42.758Z,32.00
2019-01-31T16:26:18.460Z,28.70
2019-01-31T16:28:54.741Z,29.27
2019-01-31T16:31:36.049Z,33.07
2019-01-31T16:34:09.824Z,34.87
2019-01-31T16:36:43.689Z,32.97
2019-01-31T16:39:19.304Z,37.20
2019-01-31T16:41:54.147Z,31.63
2019-01-31T16:44:28.841Z,43.27
2019-01-31T16:47:01.989Z,33.40
2019-01-31T16:49:35.927Z,32.90
2019-01-31T16:52:09.606Z,29.17
2019-01-31T16:54:46.456Z,33.20
2019-01-31T16:57:33.471Z,34.37
2019-01-31T17:00:20.285Z,37.13
2019-01-31T17:03:06.374Z,34.13
2019-01-31T17:05:40.933Z,39.43
2019-01-31T17:08:16.239Z,39.73
2019-01-31T17:10:49.807Z,42.83
2019-01-31T17:13:28.425Z,48.03
2019-01-31T17:16:01.636Z,62.78
2019-01-31T17:18:38.744Z,62.10
2019-01-31T17:21:13.552Z,56.43
2019-01-31T17:23:49.515Z,63.13
2019-01-31T17:26:24.617Z,68.23
2019-01-31T17:28:59.683Z,67.43
2019-01-31T17:31:35.603Z,68.23
2019-01-31T17:34:11.282Z,55.57
2019-01-31T17:36:46.271Z,67.32
2019-01-31T17:39:33.225Z,72.93
2019-01-31T17:42:06.615Z,62.77
2019-01-31T17:44:40.668Z,54.00
2019-01-31T17:47:15.616Z,68.50
2019-01-31T17:49:49.990Z,54.40
2019-01-31T17:52:27.522Z,69.03
2019-01-31T17:55:01.198Z,55.97
2019-01-31T17:57:34.222Z,60.60
2019-01-31T18:00:24.919Z,69.23
2019-01-31T18:02:58.969Z,64.68
2019-01-31T18:05:34.180Z,65.27
2019-01-31T18:08:09.353Z,69.03
2019-01-31T18:10:45.859Z,58.42
2019-01-31T18:13:20.390Z,63.87
2019-01-31T18:15:53.361Z,67.37
2019-01-31T18:18:29.908Z,60.00
2019-01-31T18:21:04.556Z,60.33
2019-01-31T18:23:42.333Z,62.87
2019-01-31T18:26:16.285Z,63.77
2019-01-31T18:28:48.989Z,68.32
2019-01-31T18:31:23.384Z,64.93
2019-01-31T18:33:58.289Z,61.17
2019-01-31T18:36:34.739Z,65.18
2019-01-31T18:39:11.994Z,66.17
2019-01-31T18:41:46.378Z,59.40
2019-01-31T18:44:20.038Z,62.07
2019-01-31T18:46:55.693Z,61.73
2019-01-31T18:49:31.003Z,66.90
2019-01-31T18:52:07.745Z,61.60
2019-01-31T18:54:41.897Z,64.87
2019-01-31T18:57:14.726Z,68.10
2019-01-31T18:59:49.404Z,70.50
2019-01-31T19:02:24.262Z,65.63
2019-01-31T19:04:58.058Z,67.77
2019-01-31T19:07:37.504Z,65.90
2019-01-31T19:10:15.659Z,63.20
2019-01-31T19:12:50.934Z,60.90
2019-01-31T19:15:27.337Z,62.17
2019-01-31T19:18:05.854Z,56.97
2019-01-31T19:20:46.372Z,64.53
2019-01-31T19:24:11.840Z,62.53
2019-01-31T19:26:50.276Z,60.70
2019-01-31T19:29:27.210Z,64.60
2019-01-31T19:32:01.560Z,52.63
2019-01-31T19:34:38.037Z,53.40
2019-01-31T19:37:12.934Z,52.67
2019-01-31T19:39:50.782Z,52.37
2019-01-31T19:42:24.331Z,54.63
2019-01-31T19:44:59.531Z,48.40
2019-01-31T19:47:33.349Z,59.73
2019-01-31T19:50:08.293Z,53.13
2019-01-31T19:52:43.077Z,47.03
2019-01-31T19:55:19.751Z,48.70
2019-01-31T19:57:54.079Z,52.80
2019-01-31T20:00:31.152Z,52.13
2019-01-31T20:03:05.636Z,58.03
2019-01-31T20:05:40.598Z,53.43
2019-01-31T20:08:13.863Z,55.70
2019-01-31T20:10:53.395Z,58.47
2019-01-31T20:13:28.057Z,58.03
2019-01-31T20:16:28.543Z,65.05
2019-01-31T20:19:02.569Z,58.20
2019-01-31T20:21:39.669Z,58.67
2019-01-31T20:24:14.503Z,55.03
2019-01-31T20:26:49.904Z,49.77
2019-01-31T20:29:26.575Z,46.23
2019-01-31T20:32:02.246Z,44.00
2019-01-31T20:34:37.960Z,46.47
2019-01-31T20:37:12.869Z,43.87
2019-01-31T20:39:55.612Z,46.17
2019-01-31T20:42:30.746Z,51.83
2019-01-31T20:45:10.454Z,49.30
2019-01-31T20:47:44.616Z,48.43
2019-01-31T20:50:26.555Z,40.97
2019-01-31T20:53:01.171Z,39.50
2019-01-31T20:55:35.372Z,37.03
2019-01-31T20:58:08.996Z,42.53
2019-01-31T21:00:46.486Z,41.23
2019-01-31T21:03:20.670Z,40.73
2019-01-31T21:05:56.714Z,42.77
2019-01-31T21:08:29.460Z,46.90
2019-01-31T21:11:02.510Z,43.75
2019-01-31T21:13:41.387Z,42.90
2019-01-31T21:16:22.589Z,43.13
2019-01-31T21:19:02.526Z,39.08
2019-01-31T21:21:42.450Z,43.53
2019-01-31T21:24:17.648Z,37.40
2019-01-31T21:26:53.751Z,43.80
2019-01-31T21:29:33.346Z,38.50
2019-01-31T21:32:09.082Z,39.70
2019-01-31T21:34:48.605Z,41.83
2019-01-31T21:37:26.159Z,35.13
2019-01-31T21:40:05.638Z,38.23
2019-01-31T21:42:44.418Z,38.73
2019-01-31T21:45:21.069Z,39.87
2019-01-31T21:47:54.463Z,35.53
2019-01-31T21:50:29.003Z,32.20
2019-01-31T21:53:08.006Z,32.90
2019-01-31T21:55:45.345Z,30.93
2019-01-31T21:58:23.472Z,32.63
2019-01-31T22:01:01.666Z,31.27
2019-01-31T22:03:36.190Z,33.77
2019-01-31T22:06:22.587Z,34.87
2019-01-31T22:09:24.902Z,29.50
2019-01-31T22:12:03.900Z,30.63
2019-01-31T22:14:40.848Z,31.93
2019-01-31T22:17:24.367Z,28.77
2019-01-31T22:20:11.120Z,27.37
2019-01-31T22:22:47.676Z,27.27
2019-01-31T22:25:26.854Z,25.33
2019-01-31T22:28:00.740Z,26.73
2019-01-31T22:30:39.480Z,24.07
2019-01-31T22:33:12.511Z,22.50
2019-01-31T22:35:45.348Z,23.17
2019-01-31T22:38:20.549Z,18.77
2019-01-31T22:40:55.236Z,18.70
2019-01-31T22:43:28.737Z,19.00
2019-01-31T22:46:02.529Z,18.47
2019-01-31T22:48:36.446Z,15.10
2019-01-31T22:51:09.817Z,16.20
2019-01-31T22:53:43.851Z,15.50
2019-01-31T22:56:18.464Z,13.13
2019-01-31T22:58:51.185Z,13.10
2019-01-31T23:01:38.861Z,14.07
2019-01-31T23:04:11.808Z,11.70
2019-01-31T23:06:45.084Z,12.43
2019-01-31T23:09:18.401Z,11.10
2019-01-31T23:11:51.297Z,10.43
2019-01-31T23:14:24.209Z,9.83
2019-01-31T23:16:57.509Z,9.50
2019-01-31T23:19:32.797Z,9.53
2019-01-31T23:22:07.459Z,9.45
2019-01-31T23:24:40.743Z,11.33
2019-01-31T23:27:14.404Z,9.30
2019-01-31T23:29:48.269Z,8.47
2019-01-31T23:32:22.408Z,7.27
2019-01-31T23:35:02.791Z,7.47
2019-01-31T23:37:36.676Z,6.80
2019-01-31T23:40:12.005Z,7.63
2019-01-31T23:42:44.795Z,5.73
2019-01-31T23:45:38.565Z,6.23
2019-01-31T23:48:11.389Z,6.20
2019-01-31T23:50:44.159Z,6.20
2019-01-31T23:53:18.243Z,6.67
2019-01-31T23:55:51.754Z,6.00
2019-01-31T23:58:26.859Z,5.87
